Terminal Aerodrome Forecast
Issued by NWS Dodge City, KS

Home | Current Version | Previous Version | Text Only | Print | Product List | Glossary On
Versions: 1 2 3 4 5 6 7 8 9 10 11 12 13 14 15 16 17 18 19 20 21 22 23 24 25 26 27 28 29 30 31 32 33 34 35 36 37 38 39 40 41 42 43 44 45 46 47 48 49 50
175
FTUS43 KDDC 232329
TAFDDC
TAF
KDDC 232329Z 2400/2424 14016KT P6SM SCT045
     FM240210 14015KT P6SM VCTS SCT040CB BKN250
     FM240700 16010KT P6SM BKN110 WS020/19040KT
     FM241200 14010KT 3SM BR BKN012
     FM241500 17015KT P6SM FEW015=

USA.gov is the U.S. government's official web portal to all federal, state and local government web resources and services.